createdAt,value
2016-09-13T00:00:47.867Z,91.84
2016-09-13T00:01:47.544Z,92.03
2016-09-13T00:02:47.539Z,92.22
2016-09-13T00:03:47.852Z,92.61
2016-09-13T00:04:47.523Z,92.8
2016-09-13T00:05:47.513Z,92.61
2016-09-13T00:06:47.526Z,92.22
2016-09-13T00:07:47.502Z,92.52
2016-09-13T00:08:47.499Z,92.61
2016-09-13T00:09:47.492Z,93
2016-09-13T00:10:47.487Z,92.71
2016-09-13T00:11:47.493Z,92.52
2016-09-13T00:12:47.468Z,92.8
2016-09-13T00:13:47.468Z,92.57
2016-09-13T00:14:47.775Z,92.85
2016-09-13T00:15:47.457Z,92.85
2016-09-13T00:16:47.764Z,92.57
2016-09-13T00:17:47.751Z,92.47
2016-09-13T00:18:47.432Z,92.71
2016-09-13T00:19:47.426Z,92.76
2016-09-13T00:20:47.419Z,92.47
2016-09-13T00:21:47.411Z,92.57
2016-09-13T00:22:47.404Z,92.57
2016-09-13T00:23:47.604Z,92.95
2016-09-13T00:24:47.390Z,92.85
2016-09-13T00:25:47.399Z,93.33
2016-09-13T00:26:47.382Z,93.43
2016-09-13T00:27:47.372Z,93.24
2016-09-13T00:28:47.368Z,92.66
2016-09-13T00:29:47.357Z,93.43
2016-09-13T00:30:47.355Z,93.15
2016-09-13T00:31:47.343Z,93.05
2016-09-13T00:32:47.337Z,92.95
2016-09-13T00:33:47.645Z,93.43
2016-09-13T00:34:47.336Z,93.24
2016-09-13T00:35:47.319Z,93.62
2016-09-13T00:36:47.311Z,93.43
2016-09-13T00:37:47.621Z,94.01
2016-09-13T00:38:47.299Z,93.53
2016-09-13T00:39:47.292Z,93.72
2016-09-13T00:40:47.284Z,93.68
2016-09-13T00:41:47.278Z,93.72
2016-09-13T00:42:47.268Z,93.33
2016-09-13T00:43:47.267Z,94.49
2016-09-13T00:44:47.258Z,94.06
2016-09-13T00:45:47.248Z,94.06
2016-09-13T00:46:47.245Z,94.35
2016-09-13T00:47:47.236Z,94.06
2016-09-13T00:48:47.237Z,93.96
2016-09-13T00:49:47.229Z,94.64
2016-09-13T00:50:47.219Z,94.45
2016-09-13T00:51:47.528Z,94.45
2016-09-13T00:52:47.203Z,94.64
2016-09-13T00:53:47.197Z,94.64
2016-09-13T00:54:47.191Z,94.73
2016-09-13T00:55:47.181Z,95.02
2016-09-13T00:56:47.185Z,95.21
2016-09-13T00:57:47.169Z,94.83
2016-09-13T00:58:47.166Z,94.92
2016-09-13T00:59:47.157Z,95.4
2016-09-13T01:00:47.467Z,95.21
2016-09-13T01:01:47.141Z,94.73
2016-09-13T01:02:47.137Z,95.21
2016-09-13T01:03:47.127Z,95.21
2016-09-13T01:04:47.434Z,95.31
2016-09-13T01:05:47.425Z,95.12
2016-09-13T01:06:47.105Z,95.02
2016-09-13T01:07:47.096Z,94.64
2016-09-13T01:08:47.091Z,95.31
2016-09-13T01:09:47.088Z,95.12
2016-09-13T01:10:47.395Z,94.68
2016-09-13T01:11:47.072Z,95.36
2016-09-13T01:12:47.061Z,95.5
2016-09-13T01:13:47.057Z,95.6
2016-09-13T01:14:47.051Z,95.75
2016-09-13T01:15:47.040Z,95.45
2016-09-13T01:16:47.037Z,95.75
2016-09-13T01:17:47.025Z,96.13
2016-09-13T01:18:47.336Z,95.84
2016-09-13T01:19:47.015Z,96.13
2016-09-13T01:20:47.010Z,96.22
2016-09-13T01:21:47.001Z,95.94
2016-09-13T01:22:46.992Z,95.84
2016-09-13T01:23:46.988Z,96.13
2016-09-13T01:24:46.980Z,96.32
2016-09-13T01:25:46.972Z,96.03
2016-09-13T01:26:46.969Z,95.84
2016-09-13T01:27:46.956Z,96.32
2016-09-13T01:28:47.264Z,95.94
2016-09-13T01:29:46.945Z,96.03
2016-09-13T01:30:46.936Z,96.03
2016-09-13T01:31:46.930Z,96.42
2016-09-13T01:32:47.234Z,95.94
2016-09-13T01:33:46.915Z,96.13
2016-09-13T01:34:46.907Z,96.03
2016-09-13T01:35:46.904Z,96.22
2016-09-13T01:36:46.893Z,96.22
2016-09-13T01:37:46.888Z,96.03
2016-09-13T01:38:47.192Z,96.42
2016-09-13T01:39:46.869Z,95.84
2016-09-13T01:40:47.175Z,96.03
2016-09-13T01:41:46.858Z,95.94
2016-09-13T01:42:46.852Z,95.84
2016-09-13T01:43:46.844Z,96.51
2016-09-13T01:44:47.145Z,96.42
2016-09-13T01:45:46.828Z,96.22
2016-09-13T01:46:46.823Z,96.8
2016-09-13T01:47:46.811Z,96.7
2016-09-13T01:48:47.119Z,96.99
2016-09-13T01:49:46.799Z,96.42
2016-09-13T01:50:46.793Z,96.42
2016-09-13T01:51:46.785Z,96.42
2016-09-13T01:52:47.093Z,97.09
2016-09-13T01:53:46.770Z,97.38
2016-09-13T01:54:46.761Z,97.09
2016-09-13T01:55:46.753Z,97.67
2016-09-13T01:56:46.748Z,97.09
2016-09-13T01:57:47.057Z,96.9
2016-09-13T01:58:46.735Z,96.61
2016-09-13T01:59:46.725Z,96.42
2016-09-13T02:00:46.719Z,96.61
2016-09-13T02:01:46.713Z,96.42
2016-09-13T02:02:47.018Z,96.8
2016-09-13T02:03:46.699Z,96.61
2016-09-13T02:04:46.688Z,96.51
2016-09-13T02:05:46.694Z,96.22
2016-09-13T02:06:46.677Z,96.03
2016-09-13T02:07:46.670Z,96.13
2016-09-13T02:08:46.979Z,96.32
2016-09-13T02:09:46.652Z,96.22
2016-09-13T02:10:46.649Z,96.32
2016-09-13T02:11:46.645Z,96.22
2016-09-13T02:12:46.949Z,95.94
2016-09-13T02:13:46.627Z,96.22
2016-09-13T02:14:46.620Z,96.03
2016-09-13T02:15:46.615Z,95.84
2016-09-13T02:16:46.605Z,96.22
2016-09-13T02:17:46.596Z,95.65
2016-09-13T02:18:46.590Z,96.13
2016-09-13T02:19:46.587Z,96.13
2016-09-13T02:20:46.888Z,96.03
2016-09-13T02:21:46.567Z,95.94
2016-09-13T02:22:46.875Z,96.32
2016-09-13T02:23:46.757Z,96.03
2016-09-13T02:24:46.547Z,96.03
2016-09-13T02:25:46.539Z,95.55
2016-09-13T02:26:46.533Z,95.55
2016-09-13T02:27:46.522Z,95.94
2016-09-13T02:28:46.522Z,96.13
2016-09-13T02:29:46.510Z,95.75
2016-09-13T02:30:46.817Z,95.65
2016-09-13T02:31:46.498Z,95.65
2016-09-13T02:32:46.802Z,95.55
2016-09-13T02:33:46.481Z,95.55
2016-09-13T02:34:46.484Z,95.55
2016-09-13T02:35:46.465Z,96.22
2016-09-13T02:36:46.472Z,96.03
2016-09-13T02:37:46.454Z,95.55
2016-09-13T02:38:46.441Z,96.42
2016-09-13T02:39:46.442Z,96.32
2016-09-13T02:40:46.430Z,96.13
2016-09-13T02:41:46.740Z,95.36
2016-09-13T02:42:46.418Z,95.45
2016-09-13T02:43:46.409Z,96.03
2016-09-13T02:44:46.403Z,95.94
2016-09-13T02:45:46.393Z,95.94
2016-09-13T02:46:46.387Z,96.13
2016-09-13T02:47:46.384Z,95.75
2016-09-13T02:48:46.374Z,95.94
2016-09-13T02:49:46.678Z,96.03
2016-09-13T02:50:46.366Z,96.32
2016-09-13T02:51:46.352Z,96.32
2016-09-13T02:52:46.350Z,95.94
2016-09-13T02:53:46.367Z,96.13
2016-09-13T02:54:46.330Z,96.13
2016-09-13T02:55:46.327Z,95.94
2016-09-13T02:56:46.323Z,96.03
2016-09-13T02:57:46.310Z,96.03
2016-09-13T02:58:46.303Z,95.94
2016-09-13T02:59:46.294Z,96.51
2016-09-13T03:00:46.289Z,96.7
2016-09-13T03:01:46.611Z,96.22
2016-09-13T03:02:46.271Z,96.8
2016-09-13T03:03:46.264Z,96.9
2016-09-13T03:04:46.258Z,96.37
2016-09-13T03:05:46.251Z,96.37
2016-09-13T03:06:46.258Z,96.66
2016-09-13T03:07:46.245Z,96.17
2016-09-13T03:08:46.556Z,96.94
2016-09-13T03:09:46.543Z,96.56
2016-09-13T03:10:46.529Z,96.56
2016-09-13T03:11:46.209Z,96.37
2016-09-13T03:12:46.510Z,97.04
2016-09-13T03:13:46.205Z,96.75
2016-09-13T03:14:46.186Z,96.37
2016-09-13T03:15:46.180Z,96.27
2016-09-13T03:16:46.173Z,96.75
2016-09-13T03:17:46.164Z,96.56
2016-09-13T03:18:46.161Z,96.56
2016-09-13T03:19:46.460Z,96.37
2016-09-13T03:20:46.456Z,96.47
2016-09-13T03:21:46.138Z,96.75
2016-09-13T03:22:46.130Z,97.04
2016-09-13T03:23:46.119Z,96.85
2016-09-13T03:24:46.116Z,97.71
2016-09-13T03:25:46.111Z,97.33
2016-09-13T03:26:46.097Z,97.33
2016-09-13T03:27:46.091Z,97.33
2016-09-13T03:28:46.083Z,97.52
2016-09-13T03:29:46.075Z,96.85
2016-09-13T03:30:46.077Z,97.33
2016-09-13T03:31:46.068Z,97.33
2016-09-13T03:32:46.054Z,96.94
2016-09-13T03:33:46.048Z,97.14
2016-09-13T03:34:46.040Z,97.42
2016-09-13T03:35:46.032Z,97.42
2016-09-13T03:36:46.027Z,98
2016-09-13T03:37:46.020Z,97.42
2016-09-13T03:38:46.324Z,97.71
2016-09-13T03:39:46.006Z,97.42
2016-09-13T03:40:45.993Z,97.42
2016-09-13T03:41:46.302Z,97.91
2016-09-13T03:42:45.979Z,97.81
2016-09-13T03:43:45.968Z,97.24
2016-09-13T03:44:45.964Z,97.42
2016-09-13T03:45:45.958Z,97.33
2016-09-13T03:46:46.263Z,97.42
2016-09-13T03:47:46.254Z,97.42
2016-09-13T03:48:45.936Z,98
2016-09-13T03:49:45.932Z,97.81
2016-09-13T03:50:45.924Z,97.33
2016-09-13T03:51:45.917Z,97.33
2016-09-13T03:52:45.908Z,97.62
2016-09-13T03:53:45.899Z,97.24
2016-09-13T03:54:46.207Z,97.33
2016-09-13T03:55:45.891Z,97.04
2016-09-13T03:56:45.875Z,97.14
2016-09-13T03:57:45.870Z,97.52
2016-09-13T03:58:46.174Z,97.24
2016-09-13T03:59:45.854Z,98
2016-09-13T04:00:45.847Z,97.91
2016-09-13T04:01:45.845Z,97.62
2016-09-13T04:02:45.835Z,97.04
2016-09-13T04:03:45.837Z,97.52
2016-09-13T04:04:45.818Z,97.24
2016-09-13T04:05:46.142Z,97.33
2016-09-13T04:06:46.121Z,97.81
2016-09-13T04:07:46.119Z,97.91
2016-09-13T04:08:45.789Z,98
2016-09-13T04:09:46.109Z,97.81
2016-09-13T04:10:45.776Z,97.91
2016-09-13T04:11:45.786Z,97.62
2016-09-13T04:12:45.772Z,97.66
2016-09-13T04:13:46.089Z,98
2016-09-13T04:14:45.743Z,97.71
2016-09-13T04:15:46.056Z,97.96
2016-09-13T04:16:45.729Z,98
2016-09-13T04:17:46.055Z,97.76
2016-09-13T04:18:45.713Z,97.62
2016-09-13T04:19:46.021Z,97.71
2016-09-13T04:20:45.698Z,97.86
2016-09-13T04:21:45.697Z,97.76
2016-09-13T04:22:45.682Z,97.96
2016-09-13T04:23:46.402Z,97.81
2016-09-13T04:24:45.671Z,98.53
2016-09-13T04:25:45.660Z,98.24
2016-09-13T04:26:45.654Z,98.53
2016-09-13T04:27:45.955Z,98.24
2016-09-13T04:28:45.637Z,98.34
2016-09-13T04:29:45.943Z,98.48
2016-09-13T04:30:45.623Z,98.34
2016-09-13T04:31:45.620Z,97.91
2016-09-13T04:32:45.604Z,98.05
2016-09-13T04:33:45.600Z,97.81
2016-09-13T04:34:45.592Z,98.24
2016-09-13T04:35:45.583Z,98.05
2016-09-13T04:36:45.580Z,98.48
2016-09-13T04:37:45.571Z,98.39
2016-09-13T04:38:45.564Z,98.24
2016-09-13T04:39:45.555Z,98.43
2016-09-13T04:40:45.547Z,98.34
2016-09-13T04:41:45.540Z,98.91
2016-09-13T04:42:45.855Z,98.14
2016-09-13T04:43:45.523Z,98.24
2016-09-13T04:44:45.516Z,98.72
2016-09-13T04:45:45.520Z,98.43
2016-09-13T04:46:45.503Z,98.72
2016-09-13T04:47:45.492Z,98.91
2016-09-13T04:48:45.489Z,98.53
2016-09-13T04:49:45.479Z,99.1
2016-09-13T04:50:45.471Z,99.1
2016-09-13T04:51:45.779Z,98.72
2016-09-13T04:52:45.454Z,98.63
2016-09-13T04:53:45.447Z,98.72
2016-09-13T04:54:45.440Z,98.72
2016-09-13T04:55:45.432Z,98.72
2016-09-13T04:56:45.736Z,98.82
2016-09-13T04:57:45.420Z,98.91
2016-09-13T04:58:45.413Z,98.82
2016-09-13T04:59:45.400Z,98.72
2016-09-13T05:00:45.404Z,98.72
2016-09-13T05:01:45.698Z,98.63
2016-09-13T05:02:45.377Z,99.01
2016-09-13T05:03:45.391Z,98.72
2016-09-13T05:04:45.361Z,99.01
2016-09-13T05:05:45.352Z,98.91
2016-09-13T05:06:45.370Z,99.49
2016-09-13T05:07:45.339Z,99.2
2016-09-13T05:08:45.329Z,99.2
2016-09-13T05:09:45.323Z,99.1
2016-09-13T05:10:45.311Z,99.3
2016-09-13T05:11:45.308Z,99.1
2016-09-13T05:12:45.353Z,99.87
2016-09-13T05:13:45.290Z,99.68
2016-09-13T05:14:45.284Z,99.58
2016-09-13T05:15:45.590Z,99.99
2016-09-13T05:16:45.269Z,99.87
2016-09-13T05:17:45.263Z,99.87
2016-09-13T05:18:45.254Z,99.68
2016-09-13T05:19:45.245Z,99.68
2016-09-13T05:20:45.238Z,99.78
2016-09-13T05:21:45.231Z,99.68
2016-09-13T05:22:45.224Z,99.99
2016-09-13T05:23:45.215Z,99.58
2016-09-13T05:24:45.216Z,99.97
2016-09-13T05:25:45.199Z,99.87
2016-09-13T05:26:45.191Z,99.97
2016-09-13T05:27:45.184Z,99.58
2016-09-13T05:28:45.175Z,99.49
2016-09-13T05:29:45.487Z,99.78
2016-09-13T05:30:45.473Z,99.99
2016-09-13T05:31:45.464Z,99.99
2016-09-13T05:32:45.149Z,99.99
2016-09-13T05:33:45.138Z,99.99
2016-09-13T05:34:45.447Z,99.99
2016-09-13T05:35:45.443Z,99.99
2016-09-13T05:36:45.117Z,99.99
2016-09-13T05:37:45.422Z,99.99
2016-09-13T05:38:45.104Z,99.99
2016-09-13T05:39:45.096Z,99.99
2016-09-13T05:40:45.087Z,99.99
2016-09-13T05:41:45.082Z,99.99
2016-09-13T05:42:45.068Z,99.99
2016-09-13T05:43:45.066Z,99.99
2016-09-13T05:44:45.054Z,99.99
2016-09-13T05:45:45.049Z,99.99
2016-09-13T05:46:45.040Z,99.99
2016-09-13T05:47:45.034Z,99.99
2016-09-13T05:48:45.335Z,99.99
2016-09-13T05:49:45.330Z,99.99
2016-09-13T05:50:45.051Z,99.99
2016-09-13T05:51:45.324Z,99.99
2016-09-13T05:52:45.000Z,99.99
2016-09-13T05:53:44.989Z,99.99
2016-09-13T05:54:44.986Z,99.99
2016-09-13T05:55:44.972Z,99.99
2016-09-13T05:56:44.965Z,99.54
2016-09-13T05:57:44.958Z,99.73
2016-09-13T05:58:45.264Z,99.83
2016-09-13T05:59:44.945Z,99.92
2016-09-13T06:00:45.404Z,99.73
2016-09-13T06:01:45.239Z,99.92
2016-09-13T06:02:45.270Z,99.73
2016-09-13T06:03:45.227Z,99.92
2016-09-13T06:04:44.910Z,99.25
2016-09-13T06:05:45.213Z,99.15
2016-09-13T06:06:44.901Z,99.25
2016-09-13T06:07:44.887Z,99.44
2016-09-13T06:08:44.878Z,99.44
2016-09-13T06:09:44.872Z,99.25
2016-09-13T06:10:44.862Z,99.15
2016-09-13T06:11:45.200Z,99.83
2016-09-13T06:12:44.899Z,99.99
2016-09-13T06:13:45.157Z,99.99
2016-09-13T06:14:44.833Z,99.73
2016-09-13T06:15:44.823Z,99.83
2016-09-13T06:16:44.820Z,99.99
2016-09-13T06:17:44.810Z,99.3
2016-09-13T06:18:45.118Z,99.98
2016-09-13T06:19:44.792Z,99.99
2016-09-13T06:20:45.102Z,99.59
2016-09-13T06:21:44.780Z,99.68
2016-09-13T06:22:44.773Z,99.68
2016-09-13T06:23:44.768Z,99.11
2016-09-13T06:24:44.759Z,99.78
2016-09-13T06:25:45.065Z,99.3
2016-09-13T06:26:44.744Z,99.11
2016-09-13T06:27:44.739Z,99.59
2016-09-13T06:28:44.731Z,98.82
2016-09-13T06:29:44.730Z,99.21
2016-09-13T06:30:44.727Z,99.21
2016-09-13T06:31:45.024Z,99.06
2016-09-13T06:32:44.708Z,98.87
2016-09-13T06:33:44.698Z,98.77
2016-09-13T06:34:44.687Z,98.39
2016-09-13T06:35:44.689Z,98.68
2016-09-13T06:36:44.984Z,98.72
2016-09-13T06:37:44.978Z,98.87
2016-09-13T06:38:44.660Z,98.77
2016-09-13T06:39:44.655Z,98.49
2016-09-13T06:40:44.644Z,98.19
2016-09-13T06:41:44.640Z,97.91
2016-09-13T06:42:44.631Z,97.71
2016-09-13T06:43:44.625Z,97.71
2016-09-13T06:44:44.617Z,96.66
2016-09-13T06:45:44.613Z,96.94
2016-09-13T06:46:44.604Z,97.04
2016-09-13T06:47:44.602Z,96.7
2016-09-13T06:48:44.590Z,96.42
2016-09-13T06:49:44.588Z,96.7
2016-09-13T06:50:44.579Z,96.7
2016-09-13T06:51:44.578Z,95.84
2016-09-13T06:52:44.877Z,95.65
2016-09-13T06:53:44.559Z,95.55
2016-09-13T06:54:44.545Z,94.49
2016-09-13T06:55:44.554Z,94.01
2016-09-13T06:56:44.535Z,93.15
2016-09-13T06:57:44.532Z,92.95
2016-09-13T06:58:44.531Z,93.48
2016-09-13T06:59:44.835Z,92.71
2016-09-13T07:00:44.508Z,92.22
2016-09-13T07:01:44.504Z,92.03
2016-09-13T07:02:44.496Z,91.55
2016-09-13T07:03:44.800Z,91.27
2016-09-13T07:04:44.483Z,91.12
2016-09-13T07:05:44.476Z,90.73
2016-09-13T07:06:44.471Z,90.92
2016-09-13T07:07:44.465Z,91.12
2016-09-13T07:08:44.475Z,91.21
2016-09-13T07:09:44.452Z,90.83
2016-09-13T07:10:44.449Z,90.73
2016-09-13T07:11:44.442Z,90.92
2016-09-13T07:12:44.431Z,91.21
2016-09-13T07:13:44.739Z,91.02
2016-09-13T07:14:44.422Z,91.21
2016-09-13T07:15:44.412Z,90.39
2016-09-13T07:16:44.409Z,91.26
2016-09-13T07:17:44.402Z,90.39
2016-09-13T07:18:44.410Z,91.06
2016-09-13T07:19:44.394Z,90.88
2016-09-13T07:20:44.384Z,90.3
2016-09-13T07:21:44.692Z,89.81
2016-09-13T07:22:44.368Z,89.91
2016-09-13T07:23:44.365Z,89.43
2016-09-13T07:24:44.362Z,89.23
2016-09-13T07:25:44.352Z,88.95
2016-09-13T07:26:44.347Z,88.85
2016-09-13T07:27:44.342Z,89.23
2016-09-13T07:28:44.642Z,89.09
2016-09-13T07:29:44.328Z,88.99
2016-09-13T07:30:44.321Z,89.18
2016-09-13T07:31:44.314Z,88.6
2016-09-13T07:32:44.308Z,89.28
2016-09-13T07:33:44.302Z,88.89
2016-09-13T07:34:44.297Z,88.6
2016-09-13T07:35:44.288Z,88.41
2016-09-13T07:36:44.290Z,87.74
2016-09-13T07:37:44.276Z,88.22
2016-09-13T07:38:44.273Z,88.41
2016-09-13T07:39:44.266Z,87.83
2016-09-13T07:40:44.586Z,88.12
2016-09-13T07:41:44.568Z,87.3
2016-09-13T07:42:44.248Z,87.3
2016-09-13T07:43:44.243Z,86.72
2016-09-13T07:44:44.550Z,86.62
2016-09-13T07:45:44.621Z,86.62
2016-09-13T07:46:44.542Z,85.85
2016-09-13T07:47:44.221Z,86.52
2016-09-13T07:48:44.212Z,85.8
2016-09-13T07:49:44.523Z,85.22
2016-09-13T07:50:44.533Z,85.6
2016-09-13T07:51:44.196Z,85.12
2016-09-13T07:52:44.195Z,85.31
2016-09-13T07:53:44.184Z,85.02
2016-09-13T07:54:44.202Z,84.93
2016-09-13T07:55:44.174Z,85.22
2016-09-13T07:56:44.169Z,84.44
2016-09-13T07:57:44.480Z,84.54
2016-09-13T07:58:44.468Z,84.44
2016-09-13T07:59:44.467Z,84.48
2016-09-13T08:00:44.145Z,84.48
2016-09-13T08:01:44.142Z,84.78
2016-09-13T08:02:44.135Z,84.68
2016-09-13T08:03:44.129Z,84.78
2016-09-13T08:04:44.431Z,84.3
2016-09-13T08:05:44.117Z,83.62
2016-09-13T08:06:44.115Z,84.48
2016-09-13T08:07:44.428Z,84.1
2016-09-13T08:08:44.414Z,83.52
2016-09-13T08:09:44.095Z,83.66
2016-09-13T08:10:44.405Z,83.08
2016-09-13T08:11:44.397Z,82.02
2016-09-13T08:12:44.080Z,80.41
2016-09-13T08:13:44.073Z,79.2
2016-09-13T08:14:44.070Z,79.33
2016-09-13T08:15:44.377Z,77.14
2016-09-13T08:16:44.373Z,75.24
2016-09-13T08:17:44.059Z,75.34
2016-09-13T08:18:44.049Z,72.86
2016-09-13T08:19:44.045Z,74.32
2016-09-13T08:20:44.038Z,72.71
2016-09-13T08:21:44.041Z,73.28
2016-09-13T08:22:44.043Z,71.54
2016-09-13T08:23:44.340Z,70.9
2016-09-13T08:24:44.224Z,69.34
2016-09-13T08:25:44.330Z,69.86
2016-09-13T08:26:44.324Z,69.67
2016-09-13T08:27:44.008Z,69.57
2016-09-13T08:28:44.337Z,68.99
2016-09-13T08:29:43.999Z,68.41
2016-09-13T08:30:43.999Z,69.73
2016-09-13T08:31:44.305Z,69.93
2016-09-13T08:32:43.987Z,71.28
2016-09-13T08:33:43.986Z,70.9
2016-09-13T08:34:43.978Z,71.93
2016-09-13T08:35:43.970Z,71.44
2016-09-13T08:36:43.969Z,72.61
2016-09-13T08:37:44.275Z,72.51
2016-09-13T08:38:43.959Z,70.67
2016-09-13T08:39:43.955Z,71.22
2016-09-13T08:40:43.949Z,71.41
2016-09-13T08:41:43.942Z,72.47
2016-09-13T08:42:44.253Z,72.96
2016-09-13T08:43:43.939Z,72.96
2016-09-13T08:44:43.930Z,72.67
2016-09-13T08:45:44.238Z,72.96
2016-09-13T08:46:43.923Z,73.15
2016-09-13T08:47:43.918Z,72.67
2016-09-13T08:48:44.226Z,73.54
2016-09-13T08:49:44.238Z,73.05
2016-09-13T08:50:43.907Z,73.35
2016-09-13T08:51:43.899Z,72.47
2016-09-13T08:52:43.898Z,72.57
2016-09-13T08:53:43.894Z,73.54
2016-09-13T08:54:43.897Z,72.86
2016-09-13T08:55:43.884Z,72.47
2016-09-13T08:56:44.192Z,71.41
2016-09-13T08:57:44.187Z,71.41
2016-09-13T08:58:43.869Z,72.38
2016-09-13T08:59:44.179Z,72.47
2016-09-13T09:00:43.860Z,71.99
2016-09-13T09:01:44.171Z,73.35
2016-09-13T09:02:43.850Z,71.8
2016-09-13T09:03:43.847Z,71.02
2016-09-13T09:04:43.855Z,71.6
2016-09-13T09:05:43.837Z,71.93
2016-09-13T09:06:43.835Z,71.15
2016-09-13T09:07:43.830Z,69.21
2016-09-13T09:08:44.138Z,69.7
2016-09-13T09:09:43.821Z,69.89
2016-09-13T09:10:43.811Z,68.54
2016-09-13T09:11:43.811Z,68.54
2016-09-13T09:12:43.806Z,68.92
2016-09-13T09:13:44.117Z,69.34
2016-09-13T09:14:44.110Z,70.8
2016-09-13T09:15:44.106Z,70.99
2016-09-13T09:16:43.789Z,71.19
2016-09-13T09:17:43.788Z,71.28
2016-09-13T09:18:43.781Z,70.8
2016-09-13T09:19:43.776Z,70.03
2016-09-13T09:20:43.783Z,69.24
2016-09-13T09:21:43.764Z,68.7
2016-09-13T09:22:43.764Z,69.38
2016-09-13T09:23:44.070Z,67.24
2016-09-13T09:24:43.754Z,67.24
2016-09-13T09:25:43.760Z,68.02
2016-09-13T09:26:43.743Z,67.92
2016-09-13T09:27:43.742Z,69.09
2016-09-13T09:28:43.736Z,69.67
2016-09-13T09:29:43.733Z,68.31
2016-09-13T09:30:43.728Z,68.51
2016-09-13T09:31:43.725Z,67.54
2016-09-13T09:32:43.723Z,67.34
2016-09-13T09:33:43.716Z,67.24
2016-09-13T09:34:44.026Z,66.56
2016-09-13T09:35:43.705Z,66.02
2016-09-13T09:36:43.703Z,65.63
2016-09-13T09:37:43.699Z,65.14
2016-09-13T09:38:43.700Z,65.53
2016-09-13T09:39:43.689Z,66.21
2016-09-13T09:40:43.693Z,66.69
2016-09-13T09:41:43.680Z,66.89
2016-09-13T09:42:43.691Z,66.89
2016-09-13T09:43:43.993Z,66.24
2016-09-13T09:44:43.987Z,65.75
2016-09-13T09:45:43.671Z,66.53
2016-09-13T09:46:43.681Z,64.98
2016-09-13T09:47:43.979Z,65.75
2016-09-13T09:48:43.658Z,65.66
2016-09-13T09:49:43.961Z,66.53
2016-09-13T09:50:43.957Z,65.17
2016-09-13T09:51:43.646Z,66.34
2016-09-13T09:52:43.638Z,65.17
2016-09-13T09:53:43.948Z,66.05
2016-09-13T09:54:43.626Z,66.14
2016-09-13T09:55:43.624Z,64.69
2016-09-13T09:56:43.619Z,64.2
2016-09-13T09:57:43.614Z,61.8
2016-09-13T09:58:43.611Z,61.51
2016-09-13T09:59:43.606Z,62.68
2016-09-13T10:00:43.604Z,62.68
2016-09-13T10:01:43.912Z,62.97
2016-09-13T10:02:43.594Z,62.97
2016-09-13T10:03:43.905Z,63.75
2016-09-13T10:04:43.589Z,64.53
2016-09-13T10:05:43.899Z,63.45
2016-09-13T10:06:43.579Z,63.78
2016-09-13T10:07:43.588Z,64.56
2016-09-13T10:08:43.574Z,62.68
2016-09-13T10:09:43.565Z,63.1
2016-09-13T10:10:43.560Z,62.71
2016-09-13T10:11:43.562Z,62.61
2016-09-13T10:12:43.553Z,63.68
2016-09-13T10:13:43.556Z,63.78
2016-09-13T10:14:43.548Z,61.44
2016-09-13T10:15:43.542Z,62.13
2016-09-13T10:16:43.538Z,61.18
2016-09-13T10:17:43.534Z,60.79
2016-09-13T10:18:43.843Z,62.16
2016-09-13T10:19:43.528Z,61.47
2016-09-13T10:20:43.525Z,61.08
2016-09-13T10:21:43.520Z,62.26
2016-09-13T10:22:43.522Z,62.06
2016-09-13T10:23:43.512Z,62.35
2016-09-13T10:24:43.714Z,60.41
2016-09-13T10:25:43.507Z,61.47
2016-09-13T10:26:43.507Z,60.14
2016-09-13T10:27:43.499Z,60.44
2016-09-13T10:28:43.817Z,61.11
2016-09-13T10:29:43.490Z,59.66
2016-09-13T10:30:43.803Z,59.36
2016-09-13T10:31:43.486Z,60.7
2016-09-13T10:32:43.481Z,60.5
2016-09-13T10:33:43.479Z,60.79
2016-09-13T10:34:43.475Z,59.82
2016-09-13T10:35:43.467Z,60.02
2016-09-13T10:36:43.780Z,60.89
2016-09-13T10:37:43.461Z,59.27
2016-09-13T10:38:43.460Z,59.27
2016-09-13T10:39:43.454Z,58.97
2016-09-13T10:40:43.452Z,58.78
2016-09-13T10:41:43.450Z,58.81
2016-09-13T10:42:43.447Z,57.64
2016-09-13T10:43:43.453Z,57.35
2016-09-13T10:44:43.440Z,58.13
2016-09-13T10:45:43.435Z,58.54
2016-09-13T10:46:43.432Z,57.86
2016-09-13T10:47:43.745Z,58.06
2016-09-13T10:48:43.425Z,56.3
2016-09-13T10:49:43.427Z,57.37
2016-09-13T10:50:43.424Z,57.47
2016-09-13T10:51:43.420Z,54.87
2016-09-13T10:52:43.427Z,54.28
2016-09-13T10:53:43.417Z,54.19
2016-09-13T10:54:43.414Z,53.44
2016-09-13T10:55:43.720Z,53.14
2016-09-13T10:56:43.410Z,52.39
2016-09-13T10:57:43.409Z,53.56
2016-09-13T10:58:43.406Z,52.97
2016-09-13T10:59:43.403Z,53.85
2016-09-13T11:00:43.408Z,53.27
2016-09-13T11:01:43.713Z,54.73
2016-09-13T11:02:43.711Z,53.36
2016-09-13T11:03:43.398Z,52.09
2016-09-13T11:04:43.710Z,53
2016-09-13T11:05:43.403Z,52.9
2016-09-13T11:06:43.398Z,52.44
2016-09-13T11:07:43.708Z,51.49
2016-09-13T11:08:43.719Z,49.07
2016-09-13T11:09:43.406Z,48.8
2016-09-13T11:10:43.397Z,47.65
2016-09-13T11:11:43.395Z,46.69
2016-09-13T11:12:43.397Z,45.25
2016-09-13T11:13:43.398Z,44.07
2016-09-13T11:14:43.404Z,44.68
2016-09-13T11:15:43.400Z,42.55
2016-09-13T11:16:43.405Z,43.13
2016-09-13T11:17:43.404Z,42.25
2016-09-13T11:18:43.719Z,43.92
2016-09-13T11:19:43.724Z,43.26
2016-09-13T11:20:43.411Z,41.19
2016-09-13T11:21:43.735Z,42.57
2016-09-13T11:22:43.414Z,41.61
2016-09-13T11:23:43.419Z,41.31
2016-09-13T11:24:43.425Z,39.47
2016-09-13T11:25:43.425Z,40.94
2016-09-13T11:26:43.428Z,39.68
2016-09-13T11:27:43.429Z,39.21
2016-09-13T11:28:43.755Z,39.11
2016-09-13T11:29:43.442Z,38.34
2016-09-13T11:30:43.442Z,38.44
2016-09-13T11:31:43.445Z,37.97
2016-09-13T11:32:43.451Z,38.36
2016-09-13T11:33:43.452Z,37.3
2016-09-13T11:34:43.772Z,36.13
2016-09-13T11:35:43.462Z,35.54
2016-09-13T11:36:43.466Z,37.51
2016-09-13T11:37:43.470Z,37.24
2016-09-13T11:38:43.472Z,34.69
2016-09-13T11:39:43.478Z,36.17
2016-09-13T11:40:43.481Z,36.17
2016-09-13T11:41:43.489Z,35.1
2016-09-13T11:42:43.498Z,34.1
2016-09-13T11:43:43.496Z,33.91
2016-09-13T11:44:43.505Z,35.38
2016-09-13T11:45:43.507Z,34.51
2016-09-13T11:46:43.514Z,35.22
2016-09-13T11:47:43.517Z,33.25
2016-09-13T11:48:43.836Z,32.16
2016-09-13T11:49:43.528Z,31.68
2016-09-13T11:50:43.531Z,31.4
2016-09-13T11:51:43.539Z,31.7
2016-09-13T11:52:43.548Z,31.51
2016-09-13T11:53:43.553Z,29.93
2016-09-13T11:54:43.876Z,31.62
2016-09-13T11:55:43.566Z,31.43
2016-09-13T11:56:43.579Z,30.26
2016-09-13T11:57:43.576Z,30.67
2016-09-13T11:58:43.590Z,30.37
2016-09-13T11:59:43.591Z,29.3
2016-09-13T12:00:43.600Z,28.31
2016-09-13T12:01:43.605Z,28.21
2016-09-13T12:02:43.926Z,28.39
2016-09-13T12:03:43.614Z,30.36
2016-09-13T12:04:43.932Z,29.78
2016-09-13T12:05:43.626Z,30.58
2016-09-13T12:06:43.642Z,29.3
2016-09-13T12:07:43.641Z,29.51
2016-09-13T12:08:43.643Z,28.73
2016-09-13T12:09:43.652Z,28.34
2016-09-13T12:10:43.659Z,29.63
2016-09-13T12:11:43.678Z,28.64
2016-09-13T12:12:43.675Z,28.05
2016-09-13T12:13:43.681Z,27.87
2016-09-13T12:14:43.688Z,26.49
2016-09-13T12:15:43.694Z,25.99
2016-09-13T12:16:43.702Z,25.91
2016-09-13T12:17:43.709Z,26.9
2016-09-13T12:18:43.719Z,26.81
2016-09-13T12:19:44.033Z,27.41
2016-09-13T12:20:43.730Z,25.84
2016-09-13T12:21:43.736Z,25.14
2016-09-13T12:22:43.743Z,24.54
2016-09-13T12:23:43.748Z,25.13
2016-09-13T12:24:43.957Z,26.01
2016-09-13T12:25:43.762Z,25.43
2016-09-13T12:26:43.772Z,26.02
2016-09-13T12:27:43.790Z,23.75
2016-09-13T12:28:43.786Z,24.94
2016-09-13T12:29:43.798Z,24.05
2016-09-13T12:30:43.802Z,23.66
2016-09-13T12:31:43.808Z,25.05
2016-09-13T12:32:43.819Z,25.74
2016-09-13T12:33:44.136Z,25.05
2016-09-13T12:34:43.851Z,23.57
2016-09-13T12:35:43.840Z,24.37
2016-09-13T12:36:43.846Z,23.47
2016-09-13T12:37:43.855Z,22.67
2016-09-13T12:38:43.863Z,23.38
2016-09-13T12:39:43.867Z,24.68
2016-09-13T12:40:43.875Z,23.28
2016-09-13T12:41:43.884Z,23.58
2016-09-13T12:42:43.891Z,23.88
2016-09-13T12:43:43.906Z,23.68
2016-09-13T12:44:43.909Z,23.18
2016-09-13T12:45:43.917Z,24.76
2016-09-13T12:46:44.235Z,25.05
2016-09-13T12:47:43.933Z,23.66
2016-09-13T12:48:43.944Z,23.36
2016-09-13T12:49:43.952Z,23.66
2016-09-13T12:50:43.958Z,22.66
2016-09-13T12:51:44.275Z,25.14
2016-09-13T12:52:43.970Z,23.66
2016-09-13T12:53:43.975Z,23.56
2016-09-13T12:54:43.986Z,22.96
2016-09-13T12:55:43.996Z,23.97